createdAt,value
2017-12-01T00:02:07.925Z,2.30
2017-12-01T00:04:34.375Z,2.30
2017-12-01T00:07:00.902Z,2.30
2017-12-01T00:09:27.302Z,2.40
2017-12-01T00:11:53.796Z,2.40
2017-12-01T00:14:20.212Z,2.40
2017-12-01T00:16:46.658Z,2.40
2017-12-01T00:19:13.095Z,2.30
2017-12-01T00:21:40.400Z,2.30
2017-12-01T00:24:08.779Z,2.30
2017-12-01T00:26:35.974Z,2.30
2017-12-01T00:29:02.691Z,2.30
2017-12-01T00:31:29.221Z,2.30
2017-12-01T00:33:55.678Z,2.40
2017-12-01T00:36:22.154Z,2.40
2017-12-01T00:38:48.661Z,2.30
2017-12-01T00:41:15.083Z,2.30
2017-12-01T00:43:41.562Z,2.40
2017-12-01T00:46:08.511Z,2.30
2017-12-01T00:48:35.730Z,2.40
2017-12-01T00:51:02.324Z,2.30
2017-12-01T00:53:28.838Z,2.40
2017-12-01T00:55:55.272Z,2.40
2017-12-01T00:58:22.471Z,2.40
2017-12-01T01:00:48.933Z,2.30
2017-12-01T01:03:15.410Z,2.40
2017-12-01T01:05:41.842Z,2.40
2017-12-01T01:08:09.606Z,2.40
2017-12-01T01:10:36.227Z,2.40
2017-12-01T01:13:03.480Z,2.50
2017-12-01T01:15:29.934Z,2.40
2017-12-01T01:17:56.400Z,2.40
2017-12-01T01:20:22.891Z,2.40
2017-12-01T01:22:49.720Z,2.40
2017-12-01T01:25:23.119Z,2.50
2017-12-01T01:27:50.330Z,2.50
2017-12-01T01:30:16.755Z,2.50
2017-12-01T01:32:43.211Z,2.50
2017-12-01T01:35:09.651Z,2.50
2017-12-01T01:37:36.080Z,2.50
2017-12-01T01:40:02.759Z,2.50
2017-12-01T01:42:29.221Z,2.50
2017-12-01T01:44:55.655Z,2.40
2017-12-01T01:47:22.118Z,2.50
2017-12-01T01:49:49.320Z,2.40
2017-12-01T01:52:15.790Z,2.40
2017-12-01T01:54:43.012Z,2.40
2017-12-01T01:57:09.474Z,2.40
2017-12-01T01:59:35.915Z,2.50
2017-12-01T02:02:02.698Z,2.40
2017-12-01T02:04:29.258Z,2.50
2017-12-01T02:06:56.428Z,2.50
2017-12-01T02:09:23.655Z,2.50
2017-12-01T02:11:50.094Z,2.50
2017-12-01T02:14:16.530Z,2.40
2017-12-01T02:16:43.113Z,2.50
2017-12-01T02:19:11.058Z,2.40
2017-12-01T02:21:37.502Z,2.50
2017-12-01T02:24:05.606Z,2.50
2017-12-01T02:26:32.869Z,2.50
2017-12-01T02:28:59.449Z,2.50
2017-12-01T02:31:25.870Z,2.60
2017-12-01T02:33:52.334Z,2.50
2017-12-01T02:36:19.523Z,2.50
2017-12-01T02:38:46.012Z,2.50
2017-12-01T02:41:12.458Z,2.60
2017-12-01T02:43:39.711Z,2.50
2017-12-01T02:46:06.313Z,2.50
2017-12-01T02:48:32.790Z,2.50
2017-12-01T02:50:59.272Z,2.50
2017-12-01T02:53:25.732Z,2.50
2017-12-01T02:55:52.188Z,2.50
2017-12-01T02:58:18.681Z,2.50
2017-12-01T03:00:45.185Z,2.60
2017-12-01T03:03:11.647Z,2.60
2017-12-01T03:05:38.094Z,2.60
2017-12-01T03:08:05.269Z,2.70
2017-12-01T03:10:31.775Z,2.50
2017-12-01T03:12:58.214Z,2.50
2017-12-01T03:15:24.657Z,2.50
2017-12-01T03:17:51.083Z,2.40
2017-12-01T03:20:18.274Z,2.20
2017-12-01T03:22:44.748Z,2.20
2017-12-01T03:25:11.173Z,2.10
2017-12-01T03:27:37.603Z,2.00
2017-12-01T03:30:04.795Z,1.90
2017-12-01T03:32:31.330Z,1.80
2017-12-01T03:34:58.570Z,1.60
2017-12-01T03:37:24.990Z,1.50
2017-12-01T03:39:51.439Z,1.50
2017-12-01T03:42:17.888Z,1.40
2017-12-01T03:44:44.330Z,1.40
2017-12-01T03:47:10.810Z,1.40
2017-12-01T03:49:37.235Z,1.40
2017-12-01T03:52:04.422Z,1.40
2017-12-01T03:54:30.877Z,1.40
2017-12-01T03:56:57.285Z,1.40
2017-12-01T03:59:23.723Z,1.50
2017-12-01T04:01:50.182Z,1.40
2017-12-01T04:04:16.675Z,1.50
2017-12-01T04:06:43.128Z,1.50
2017-12-01T04:09:10.290Z,1.50
2017-12-01T04:11:36.727Z,1.50
2017-12-01T04:14:03.849Z,1.50
2017-12-01T04:16:31.088Z,1.50
2017-12-01T04:18:57.552Z,1.50
2017-12-01T04:21:24.030Z,1.60
2017-12-01T04:23:50.525Z,1.60
2017-12-01T04:26:17.017Z,1.60
2017-12-01T04:28:44.210Z,1.60
2017-12-01T04:31:10.631Z,1.60
2017-12-01T04:33:37.151Z,1.70
2017-12-01T04:36:04.298Z,1.60
2017-12-01T04:38:31.487Z,1.40
2017-12-01T04:40:58.027Z,1.30
2017-12-01T04:43:24.442Z,1.30
2017-12-01T04:45:51.736Z,1.40
2017-12-01T04:48:18.979Z,1.40
2017-12-01T04:50:45.523Z,1.40
2017-12-01T04:53:12.056Z,1.50
2017-12-01T04:55:39.303Z,1.60
2017-12-01T04:58:06.692Z,1.60
2017-12-01T05:00:33.245Z,1.70
2017-12-01T05:02:59.735Z,1.70
2017-12-01T05:05:26.254Z,1.70
2017-12-01T05:07:53.479Z,1.80
2017-12-01T05:10:20.548Z,1.90
2017-12-01T05:12:48.013Z,1.80
2017-12-01T05:15:14.615Z,1.80
2017-12-01T05:17:41.087Z,1.80
2017-12-01T05:20:08.061Z,1.80
2017-12-01T05:22:35.284Z,1.90
2017-12-01T05:25:03.009Z,1.90
2017-12-01T05:27:30.294Z,1.90
2017-12-01T05:29:56.850Z,1.90
2017-12-01T05:32:23.371Z,1.90
2017-12-01T05:34:49.935Z,1.90
2017-12-01T05:37:16.510Z,1.90
2017-12-01T05:39:43.022Z,1.90
2017-12-01T05:42:09.806Z,2.00
2017-12-01T05:44:36.324Z,2.00
2017-12-01T05:47:03.240Z,2.00
2017-12-01T05:49:30.534Z,2.10
2017-12-01T05:51:57.114Z,2.10
2017-12-01T05:54:23.682Z,2.10
2017-12-01T05:56:50.192Z,2.10
2017-12-01T05:59:16.721Z,2.20
2017-12-01T06:01:43.994Z,2.20
2017-12-01T06:04:10.468Z,2.20
2017-12-01T06:06:37.244Z,2.20
2017-12-01T06:09:04.304Z,2.30
2017-12-01T06:11:31.533Z,2.20
2017-12-01T06:13:58.039Z,2.20
2017-12-01T06:16:24.579Z,2.20
2017-12-01T06:18:51.171Z,2.20
2017-12-01T06:21:17.643Z,2.20
2017-12-01T06:23:44.939Z,2.20
2017-12-01T06:26:12.128Z,2.20
2017-12-01T06:28:38.650Z,2.20
2017-12-01T06:31:05.191Z,2.10
2017-12-01T06:33:32.454Z,1.90
2017-12-01T06:35:58.986Z,1.90
2017-12-01T06:38:26.011Z,1.80
2017-12-01T06:40:52.658Z,1.60
2017-12-01T06:43:20.045Z,1.40
2017-12-01T06:45:46.795Z,1.20
2017-12-01T06:48:13.511Z,1.00
2017-12-01T06:50:41.527Z,0.70
2017-12-01T06:53:09.418Z,0.70
2017-12-01T06:55:36.226Z,0.70
2017-12-01T06:58:04.433Z,0.60
2017-12-01T07:00:32.591Z,0.80
2017-12-01T07:03:00.255Z,0.90
2017-12-01T07:05:27.451Z,0.90
2017-12-01T07:07:54.213Z,1.20
2017-12-01T07:10:22.242Z,1.10
2017-12-01T07:12:49.527Z,1.10
2017-12-01T07:15:16.478Z,1.20
2017-12-01T07:17:43.123Z,1.20
2017-12-01T07:20:09.863Z,1.10
2017-12-01T07:22:36.463Z,1.10
2017-12-01T07:25:07.196Z,1.20
2017-12-01T07:27:34.486Z,1.20
2017-12-01T07:30:04.075Z,1.20
2017-12-01T07:32:31.773Z,2.00
2017-12-01T07:34:58.367Z,1.20
2017-12-01T07:37:24.940Z,1.20
2017-12-01T07:39:52.580Z,1.10
2017-12-01T07:42:19.476Z,0.90
2017-12-01T07:44:47.004Z,0.80
2017-12-01T07:47:13.602Z,0.60
2017-12-01T07:49:40.808Z,0.50
2017-12-01T07:52:09.457Z,0.60
2017-12-01T07:54:36.205Z,0.60
2017-12-01T07:57:04.003Z,0.80
2017-12-01T07:59:30.839Z,0.80
2017-12-01T08:01:57.556Z,1.00
2017-12-01T08:04:25.174Z,1.10
2017-12-01T08:06:51.831Z,1.30
2017-12-01T08:09:18.558Z,1.30
2017-12-01T08:11:45.911Z,1.60
2017-12-01T08:14:12.832Z,1.50
2017-12-01T08:16:51.632Z,1.70
2017-12-01T08:19:21.531Z,1.70
2017-12-01T08:22:00.378Z,1.80
2017-12-01T08:24:40.066Z,2.00
2017-12-01T08:27:07.907Z,2.00
2017-12-01T08:29:34.611Z,2.10
2017-12-01T08:32:01.851Z,2.20
2017-12-01T08:34:28.675Z,2.30
2017-12-01T08:36:55.382Z,2.40
2017-12-01T08:39:22.032Z,2.60
2017-12-01T08:41:48.632Z,2.50
2017-12-01T08:44:16.112Z,2.60
2017-12-01T08:46:43.462Z,2.70
2017-12-01T08:49:10.993Z,2.60
2017-12-01T08:51:38.137Z,2.80
2017-12-01T08:54:05.755Z,2.80
2017-12-01T08:56:33.409Z,2.80
2017-12-01T08:59:00.011Z,2.80
2017-12-01T09:01:26.692Z,2.80
2017-12-01T09:03:53.217Z,2.80
2017-12-01T09:06:19.775Z,2.70
2017-12-01T09:08:46.506Z,2.80
2017-12-01T09:11:13.025Z,2.90
2017-12-01T09:13:39.847Z,2.80
2017-12-01T09:16:06.743Z,2.90
2017-12-01T09:18:33.341Z,2.90
2017-12-01T09:21:00.636Z,3.00
2017-12-01T09:23:27.895Z,3.10
2017-12-01T09:25:54.495Z,3.00
2017-12-01T09:28:23.331Z,3.20
2017-12-01T09:30:56.734Z,3.30
2017-12-01T09:33:28.791Z,3.30
2017-12-01T09:35:59.302Z,3.40
2017-12-01T09:38:31.788Z,3.60
2017-12-01T09:41:02.305Z,3.70
2017-12-01T09:43:31.029Z,3.80
2017-12-01T09:45:59.072Z,4.00
2017-12-01T09:48:37.069Z,3.60
2017-12-01T09:51:10.754Z,4.30
2017-12-01T09:53:43.579Z,4.20
2017-12-01T09:56:16.496Z,4.40
2017-12-01T09:58:53.212Z,4.40
2017-12-01T10:01:32.783Z,4.40
2017-12-01T10:06:50.598Z,4.40
2017-12-01T10:09:21.000Z,4.30
2017-12-01T10:12:01.177Z,4.30
2017-12-01T10:14:37.352Z,4.40
2017-12-01T10:17:05.327Z,4.40
2017-12-01T10:19:32.652Z,4.40
2017-12-01T10:21:59.622Z,4.50
2017-12-01T10:24:27.099Z,4.30
2017-12-01T10:26:54.575Z,4.20
2017-12-01T10:29:21.137Z,4.10
2017-12-01T10:31:47.727Z,4.00
2017-12-01T10:34:15.675Z,3.80
2017-12-01T10:36:42.302Z,3.70
2017-12-01T10:39:09.044Z,3.70
2017-12-01T10:41:36.020Z,3.70
2017-12-01T10:44:03.280Z,3.70
2017-12-01T10:46:30.617Z,3.60
2017-12-01T10:48:57.220Z,3.70
2017-12-01T10:51:24.556Z,3.70
2017-12-01T10:53:51.704Z,3.80
2017-12-01T10:56:18.414Z,3.90
2017-12-01T10:58:44.951Z,4.10
2017-12-01T11:01:12.232Z,4.30
2017-12-01T11:03:38.853Z,4.50
2017-12-01T11:06:06.564Z,4.60
2017-12-01T11:08:34.051Z,4.80
2017-12-01T11:11:00.692Z,4.70
2017-12-01T11:13:27.890Z,5.00
2017-12-01T11:15:55.391Z,5.00
2017-12-01T11:18:22.081Z,5.00
2017-12-01T11:20:49.539Z,5.10
2017-12-01T11:23:16.235Z,4.90
2017-12-01T11:25:43.319Z,4.70
2017-12-01T11:28:10.238Z,4.70
2017-12-01T11:30:37.555Z,5.10
2017-12-01T11:33:04.654Z,5.10
2017-12-01T11:35:32.001Z,5.30
2017-12-01T11:37:59.412Z,5.30
2017-12-01T11:40:26.828Z,5.60
2017-12-01T11:43:01.976Z,5.50
2017-12-01T11:45:30.874Z,5.20
2017-12-01T11:47:57.546Z,5.60
2017-12-01T11:50:24.240Z,5.30
2017-12-01T11:52:51.600Z,5.00
2017-12-01T11:55:19.274Z,4.60
2017-12-01T11:57:48.043Z,4.20
2017-12-01T12:00:14.730Z,4.10
2017-12-01T12:02:41.520Z,4.10
2017-12-01T12:05:08.269Z,4.10
2017-12-01T12:07:35.079Z,4.10
2017-12-01T12:10:01.597Z,4.20
2017-12-01T12:12:29.769Z,4.20
2017-12-01T12:14:56.557Z,4.20
2017-12-01T12:17:27.816Z,4.00
2017-12-01T12:19:59.452Z,4.20
2017-12-01T12:22:37.667Z,3.90
2017-12-01T12:25:10.840Z,3.80
2017-12-01T12:27:41.156Z,3.80
2017-12-01T12:30:11.412Z,3.70
2017-12-01T12:32:41.327Z,3.60
2017-12-01T12:35:12.189Z,3.60
2017-12-01T12:37:39.357Z,3.60
2017-12-01T12:40:13.674Z,3.70
2017-12-01T12:42:43.753Z,3.80
2017-12-01T12:45:10.364Z,4.10
2017-12-01T12:47:37.287Z,5.10
2017-12-01T12:50:19.041Z,4.60
2017-12-01T12:52:46.527Z,5.10
2017-12-01T12:55:14.226Z,5.20
2017-12-01T12:57:41.695Z,5.30
2017-12-01T13:00:09.251Z,5.30
2017-12-01T13:02:35.898Z,5.30
2017-12-01T13:05:02.646Z,5.10
2017-12-01T13:07:29.272Z,5.00
2017-12-01T13:09:56.075Z,4.80
2017-12-01T13:12:23.404Z,4.40
2017-12-01T13:14:50.057Z,4.40
2017-12-01T13:17:16.748Z,4.20
2017-12-01T13:19:43.427Z,4.00
2017-12-01T13:22:10.177Z,3.80
2017-12-01T13:24:37.098Z,3.80
2017-12-01T13:27:04.348Z,3.60
2017-12-01T13:29:31.247Z,3.40
2017-12-01T13:31:58.662Z,3.20
2017-12-01T13:34:25.326Z,3.20
2017-12-01T13:36:53.197Z,3.30
2017-12-01T13:39:21.394Z,3.30
2017-12-01T13:41:48.130Z,3.40
2017-12-01T13:44:14.658Z,3.50
2017-12-01T13:46:42.717Z,3.60
2017-12-01T13:49:11.150Z,3.80
2017-12-01T13:51:38.649Z,4.00
2017-12-01T13:54:06.027Z,3.90
2017-12-01T13:56:32.794Z,4.00
2017-12-01T13:59:00.124Z,5.00
2017-12-01T14:01:27.686Z,4.00
2017-12-01T14:03:54.248Z,4.00
2017-12-01T14:06:21.624Z,3.80
2017-12-01T14:08:48.238Z,3.70
2017-12-01T14:11:15.765Z,3.70
2017-12-01T14:13:42.575Z,3.50
2017-12-01T14:16:10.703Z,3.40
2017-12-01T14:18:37.968Z,3.40
2017-12-01T14:21:05.222Z,3.30
2017-12-01T14:23:32.416Z,3.20
2017-12-01T14:25:59.562Z,3.20
2017-12-01T14:28:26.793Z,3.20
2017-12-01T14:30:53.337Z,3.20
2017-12-01T14:33:19.900Z,3.20
2017-12-01T14:35:47.239Z,3.00
2017-12-01T14:38:14.569Z,3.00
2017-12-01T14:40:41.177Z,3.00
2017-12-01T14:43:11.178Z,3.00
2017-12-01T14:45:43.173Z,3.10
2017-12-01T14:48:13.031Z,3.30
2017-12-01T14:50:43.786Z,3.50
2017-12-01T14:53:13.286Z,3.60
2017-12-01T14:55:41.124Z,3.70
2017-12-01T14:58:13.248Z,3.90
2017-12-01T15:00:45.898Z,3.70
2017-12-01T15:03:13.666Z,3.70
2017-12-01T15:05:42.699Z,3.60
2017-12-01T15:08:13.668Z,3.50
2017-12-01T15:10:44.039Z,3.20
2017-12-01T15:13:13.829Z,3.40
2017-12-01T15:15:43.923Z,3.30
2017-12-01T15:18:13.741Z,3.20
2017-12-01T15:20:40.410Z,2.70
2017-12-01T15:23:11.673Z,2.90
2017-12-01T15:25:42.966Z,2.90
2017-12-01T15:28:12.202Z,2.80
2017-12-01T15:30:42.804Z,2.80
2017-12-01T15:33:13.786Z,2.70
2017-12-01T15:35:43.869Z,2.60
2017-12-01T15:38:14.110Z,2.40
2017-12-01T15:40:44.604Z,2.00
2017-12-01T15:43:22.676Z,2.00
2017-12-01T15:45:52.326Z,1.80
2017-12-01T15:48:20.579Z,1.80
2017-12-01T15:50:50.395Z,1.80
2017-12-01T15:53:21.741Z,1.80
2017-12-01T15:55:53.690Z,1.60
2017-12-01T15:58:24.229Z,1.60
2017-12-01T16:00:55.254Z,1.60
2017-12-01T16:03:26.702Z,1.60
2017-12-01T16:05:54.427Z,1.50
2017-12-01T16:08:20.938Z,1.50
2017-12-01T16:10:48.199Z,1.50
2017-12-01T16:13:14.646Z,1.50
2017-12-01T16:15:41.861Z,1.50
2017-12-01T16:18:08.307Z,1.70
2017-12-01T16:20:34.969Z,1.70
2017-12-01T16:23:01.560Z,1.80
2017-12-01T16:25:28.018Z,1.90
2017-12-01T16:27:54.493Z,1.90
2017-12-01T16:30:21.037Z,2.00
2017-12-01T16:32:51.196Z,2.10
2017-12-01T16:35:14.031Z,2.20
2017-12-01T16:37:40.431Z,2.30
2017-12-01T16:40:07.829Z,2.30
2017-12-01T16:42:34.336Z,2.30
2017-12-01T16:45:01.723Z,2.20
2017-12-01T16:47:28.222Z,2.20
2017-12-01T16:49:55.424Z,2.20
2017-12-01T16:52:21.858Z,2.10
2017-12-01T16:54:48.356Z,2.40
2017-12-01T16:57:14.850Z,2.20
2017-12-01T16:59:41.335Z,2.20
2017-12-01T17:02:08.672Z,2.00
2017-12-01T17:04:35.213Z,2.00
2017-12-01T17:07:01.795Z,2.10
2017-12-01T17:09:28.299Z,2.00
2017-12-01T17:11:55.792Z,2.00
2017-12-01T17:14:22.265Z,1.90
2017-12-01T17:16:49.586Z,1.90
2017-12-01T17:19:16.097Z,1.90
2017-12-01T17:21:43.351Z,1.90
2017-12-01T17:24:09.787Z,1.90
2017-12-01T17:26:36.268Z,2.00
2017-12-01T17:29:02.959Z,1.90
2017-12-01T17:31:29.511Z,1.90
2017-12-01T17:33:56.114Z,1.80
2017-12-01T17:36:22.581Z,1.90
2017-12-01T17:38:49.076Z,1.80
2017-12-01T17:41:15.632Z,1.80
2017-12-01T17:43:42.124Z,1.80
2017-12-01T17:46:08.704Z,1.80
2017-12-01T17:48:35.212Z,1.80
2017-12-01T17:51:01.674Z,1.90
2017-12-01T17:53:28.113Z,1.80
2017-12-01T17:55:54.605Z,1.90
2017-12-01T17:58:21.075Z,1.90
2017-12-01T18:00:47.566Z,1.90
2017-12-01T18:03:14.193Z,1.90
2017-12-01T18:05:40.676Z,1.80
2017-12-01T18:08:07.638Z,1.90
2017-12-01T18:10:34.178Z,1.80
2017-12-01T18:13:01.360Z,1.80
2017-12-01T18:15:27.840Z,1.80
2017-12-01T18:17:54.408Z,1.90
2017-12-01T18:20:21.686Z,1.90
2017-12-01T18:22:48.166Z,1.90
2017-12-01T18:25:14.682Z,1.90
2017-12-01T18:27:41.195Z,1.90
2017-12-01T18:30:08.223Z,1.90
2017-12-01T18:32:34.659Z,1.80
2017-12-01T18:35:01.162Z,1.80
2017-12-01T18:37:28.462Z,1.70
2017-12-01T18:39:54.950Z,1.60
2017-12-01T18:42:21.533Z,1.60
2017-12-01T18:44:48.102Z,1.50
2017-12-01T18:47:14.627Z,1.40
2017-12-01T18:49:41.104Z,1.30
2017-12-01T18:52:07.747Z,1.30
2017-12-01T18:54:34.231Z,1.30
2017-12-01T18:57:00.939Z,1.30
2017-12-01T18:59:27.384Z,1.20
2017-12-01T19:01:53.890Z,1.10
2017-12-01T19:04:21.149Z,0.80
2017-12-01T19:06:47.641Z,0.70
2017-12-01T19:09:14.103Z,0.70
2017-12-01T19:11:40.530Z,0.70
2017-12-01T19:14:07.906Z,0.60
2017-12-01T19:16:34.346Z,0.20
2017-12-01T19:19:00.851Z,0.50
2017-12-01T19:21:27.411Z,0.40
2017-12-01T19:23:54.691Z,0.40
2017-12-01T19:26:21.165Z,0.40
2017-12-01T19:28:47.727Z,0.40
2017-12-01T19:31:14.971Z,0.40
2017-12-01T19:33:42.260Z,0.50
2017-12-01T19:36:09.514Z,0.40
2017-12-01T19:38:36.089Z,0.40
2017-12-01T19:41:03.095Z,0.40
2017-12-01T19:43:30.350Z,0.20
2017-12-01T19:45:56.826Z,0.20
2017-12-01T19:48:23.306Z,0.20
2017-12-01T19:50:49.811Z,0.20
2017-12-01T19:53:17.267Z,0.10
2017-12-01T19:55:44.416Z,0.00
2017-12-01T19:58:10.859Z,-0.10
2017-12-01T20:00:37.323Z,-0.20
2017-12-01T20:03:04.455Z,-0.20
2017-12-01T20:05:30.946Z,-1.20
2017-12-01T20:07:57.533Z,-0.30
2017-12-01T20:10:23.955Z,-0.30
2017-12-01T20:12:51.142Z,-0.50
2017-12-01T20:15:17.593Z,-0.50
2017-12-01T20:17:44.207Z,-0.60
2017-12-01T20:20:10.693Z,-0.60
2017-12-01T20:22:37.133Z,-0.70
2017-12-01T20:25:03.989Z,-0.70
2017-12-01T20:27:30.551Z,-0.70
2017-12-01T20:29:57.010Z,-0.70
2017-12-01T20:32:24.299Z,-0.80
2017-12-01T20:34:50.809Z,-0.80
2017-12-01T20:37:17.349Z,-0.80
2017-12-01T20:39:43.794Z,-0.90
2017-12-01T20:42:10.296Z,-0.90
2017-12-01T20:44:36.792Z,-1.00
2017-12-01T20:47:03.716Z,-0.30
2017-12-01T20:49:30.262Z,-1.20
2017-12-01T20:51:56.835Z,-1.20
2017-12-01T20:54:23.406Z,-1.30
2017-12-01T20:56:49.954Z,-1.30
2017-12-01T20:59:16.445Z,-1.40
2017-12-01T21:01:42.929Z,-1.40
2017-12-01T21:04:10.162Z,-1.40
2017-12-01T21:06:36.598Z,-1.40
2017-12-01T21:09:03.987Z,-1.30
2017-12-01T21:11:31.226Z,-1.20
2017-12-01T21:13:57.815Z,-1.30
2017-12-01T21:16:24.370Z,-1.20
2017-12-01T21:18:51.106Z,-1.20
2017-12-01T21:21:19.014Z,-1.30
2017-12-01T21:23:45.808Z,-1.40
2017-12-01T21:26:12.266Z,-1.40
2017-12-01T21:28:38.823Z,-1.10
2017-12-01T21:31:06.044Z,-1.50
2017-12-01T21:33:32.528Z,-1.50
2017-12-01T21:35:59.064Z,-1.50
2017-12-01T21:38:25.620Z,-1.50
2017-12-01T21:40:52.828Z,-1.30
2017-12-01T21:43:19.319Z,-1.30
2017-12-01T21:45:46.599Z,-1.30
2017-12-01T21:48:13.112Z,-1.30
2017-12-01T21:50:40.419Z,-1.30
2017-12-01T21:53:06.856Z,-1.30
2017-12-01T21:55:34.088Z,-1.30
2017-12-01T21:58:01.279Z,-1.40
2017-12-01T22:00:27.767Z,-1.40
2017-12-01T22:02:54.192Z,-1.40
2017-12-01T22:05:20.647Z,-1.50
2017-12-01T22:07:47.030Z,-1.50
2017-12-01T22:10:14.358Z,-1.60
2017-12-01T22:12:41.556Z,-1.60
2017-12-01T22:15:08.115Z,-1.50
2017-12-01T22:17:35.372Z,-1.70
2017-12-01T22:20:01.788Z,-1.70
2017-12-01T22:22:28.521Z,-1.70
2017-12-01T22:24:54.914Z,-1.80
2017-12-01T22:27:21.388Z,-1.80
2017-12-01T22:29:47.823Z,-1.90
2017-12-01T22:32:14.298Z,-1.60
2017-12-01T22:34:41.520Z,-2.10
2017-12-01T22:37:07.999Z,-2.10
2017-12-01T22:39:34.434Z,-2.10
2017-12-01T22:42:00.920Z,-1.90
2017-12-01T22:44:28.059Z,-2.40
2017-12-01T22:46:54.516Z,-2.30
2017-12-01T22:49:20.970Z,-2.40
2017-12-01T22:51:48.139Z,-2.40
2017-12-01T22:54:15.294Z,-2.50
2017-12-01T22:56:41.775Z,-2.40
2017-12-01T22:59:08.201Z,-2.40
2017-12-01T23:01:34.701Z,-2.50
2017-12-01T23:04:03.082Z,-2.50
2017-12-01T23:06:30.336Z,-2.50
2017-12-01T23:08:56.805Z,-2.50
2017-12-01T23:11:24.106Z,-2.30
2017-12-01T23:13:50.652Z,-2.40
2017-12-01T23:16:17.115Z,-2.20
2017-12-01T23:18:43.571Z,-2.00
2017-12-01T23:21:10.764Z,-1.80
2017-12-01T23:23:37.285Z,-1.60
2017-12-01T23:26:04.391Z,-1.70
2017-12-01T23:28:31.107Z,-1.50
2017-12-01T23:30:57.550Z,-1.50
2017-12-01T23:33:24.126Z,-1.30
2017-12-01T23:35:50.541Z,-1.30
2017-12-01T23:38:16.961Z,-1.20
2017-12-01T23:40:43.374Z,-1.20
2017-12-01T23:43:09.868Z,-1.20
2017-12-01T23:45:36.278Z,-1.10
2017-12-01T23:48:02.961Z,-1.10
2017-12-01T23:50:29.813Z,-1.20
2017-12-01T23:52:56.257Z,-1.00
2017-12-01T23:55:22.842Z,-1.20
2017-12-01T23:57:49.301Z,-1.20
